createdAt,value
2019-04-04T00:02:19.141Z,4.10
2019-04-04T00:04:52.316Z,4.07
2019-04-04T00:07:21.425Z,4.03
2019-04-04T00:09:51.971Z,4.01
2019-04-04T00:12:22.219Z,4.07
2019-04-04T00:14:52.609Z,4.06
2019-04-04T00:17:23.230Z,4.04
2019-04-04T00:19:55.128Z,3.92
2019-04-04T00:22:25.671Z,3.85
2019-04-04T00:24:55.859Z,3.82
2019-04-04T00:27:26.107Z,3.82
2019-04-04T00:29:56.386Z,3.83
2019-04-04T00:32:26.940Z,3.87
2019-04-04T00:34:57.820Z,3.85
2019-04-04T00:37:29.235Z,3.82
2019-04-04T00:39:59.654Z,3.83
2019-04-04T00:42:30.209Z,3.84
2019-04-04T00:45:00.495Z,3.90
2019-04-04T00:47:32.412Z,3.95
2019-04-04T00:50:06.092Z,3.93
2019-04-04T00:52:34.995Z,3.92
2019-04-04T00:55:06.134Z,3.91
2019-04-04T00:57:36.482Z,3.94
2019-04-04T01:00:27.880Z,3.87
2019-04-04T01:02:58.587Z,3.86
2019-04-04T01:05:32.123Z,3.91
2019-04-04T01:08:02.624Z,3.93
2019-04-04T01:10:32.891Z,3.84
2019-04-04T01:13:05.316Z,3.83
2019-04-04T01:15:35.947Z,3.88
2019-04-04T01:18:06.769Z,3.87
2019-04-04T01:20:37.188Z,3.84
2019-04-04T01:23:08.517Z,3.86
2019-04-04T01:25:38.830Z,3.87
2019-04-04T01:28:09.437Z,3.83
2019-04-04T01:30:39.682Z,3.89
2019-04-04T01:33:09.926Z,3.97
2019-04-04T01:35:41.647Z,3.91
2019-04-04T01:38:12.318Z,3.90
2019-04-04T01:40:42.571Z,3.83
2019-04-04T01:43:13.034Z,3.83
2019-04-04T01:45:44.678Z,3.78
2019-04-04T01:48:18.449Z,3.77
2019-04-04T01:50:48.443Z,3.77
2019-04-04T01:53:18.661Z,3.77
2019-04-04T01:55:48.894Z,3.78
2019-04-04T01:58:19.492Z,3.80
2019-04-04T02:00:49.735Z,3.79
2019-04-04T02:03:22.476Z,3.81
2019-04-04T02:05:51.890Z,3.81
2019-04-04T02:08:22.079Z,3.77
2019-04-04T02:10:52.377Z,3.74
2019-04-04T02:13:22.558Z,3.70
2019-04-04T02:15:52.786Z,3.70
2019-04-04T02:19:36.689Z,3.48
2019-04-04T02:22:07.260Z,3.51
2019-04-04T02:24:37.977Z,3.48
2019-04-04T02:27:08.271Z,3.47
2019-04-04T02:29:39.931Z,3.43
2019-04-04T02:32:14.180Z,3.40
2019-04-04T02:34:44.418Z,3.37
2019-04-04T02:37:14.729Z,3.34
2019-04-04T02:39:44.979Z,3.37
2019-04-04T02:42:15.597Z,3.31
2019-04-04T02:44:46.206Z,3.26
2019-04-04T02:47:17.514Z,3.21
2019-04-04T02:49:49.091Z,3.17
2019-04-04T02:52:19.414Z,3.22
2019-04-04T02:54:49.676Z,3.19
2019-04-04T02:57:20.262Z,3.20
2019-04-04T02:59:52.850Z,3.13
2019-04-04T03:02:22.426Z,3.11
2019-04-04T03:04:53.642Z,3.09
2019-04-04T03:07:23.938Z,3.13
2019-04-04T03:09:54.294Z,3.19
2019-04-04T03:12:26.126Z,3.18
2019-04-04T03:14:57.089Z,3.16
2019-04-04T03:17:31.546Z,3.21
2019-04-04T03:19:59.706Z,3.21
2019-04-04T03:22:30.292Z,3.26
2019-04-04T03:25:00.534Z,3.30
2019-04-04T03:27:30.817Z,3.26
2019-04-04T03:30:01.099Z,3.31
2019-04-04T03:32:31.372Z,3.24
2019-04-04T03:35:01.666Z,3.19
2019-04-04T03:37:32.016Z,3.15
2019-04-04T03:40:02.680Z,3.15
2019-04-04T03:42:33.084Z,3.07
2019-04-04T03:45:04.062Z,2.99
2019-04-04T03:47:34.331Z,2.97
2019-04-04T03:50:06.155Z,2.97
2019-04-04T03:52:36.620Z,2.92
2019-04-04T03:55:07.463Z,2.92
2019-04-04T03:57:37.743Z,2.90
2019-04-04T04:00:28.479Z,2.90
2019-04-04T04:02:58.819Z,2.87
2019-04-04T04:05:34.026Z,2.89
2019-04-04T04:08:03.257Z,2.90
2019-04-04T04:10:34.002Z,2.92
2019-04-04T04:13:05.333Z,2.89
2019-04-04T04:15:37.348Z,2.89
2019-04-04T04:18:07.932Z,2.90
2019-04-04T04:20:39.157Z,2.93
2019-04-04T04:23:09.424Z,2.90
2019-04-04T04:25:39.673Z,2.84
2019-04-04T04:28:09.943Z,2.80
2019-04-04T04:30:42.630Z,2.76
2019-04-04T04:33:12.876Z,2.69
2019-04-04T04:35:43.594Z,2.72
2019-04-04T04:38:14.343Z,2.66
2019-04-04T04:40:47.488Z,2.62
2019-04-04T04:43:17.135Z,2.61
2019-04-04T04:45:47.419Z,2.52
2019-04-04T04:48:18.159Z,2.48
2019-04-04T04:50:48.344Z,2.44
2019-04-04T04:53:19.526Z,2.35
2019-04-04T04:55:50.297Z,2.28
2019-04-04T04:58:20.829Z,2.12
2019-04-04T05:00:51.455Z,1.90
2019-04-04T05:03:24.035Z,1.81
2019-04-04T05:05:54.084Z,1.62
2019-04-04T05:08:24.517Z,1.50
2019-04-04T05:10:55.073Z,1.47
2019-04-04T05:13:28.689Z,1.40
2019-04-04T05:15:57.437Z,1.37
2019-04-04T05:18:28.037Z,1.25
2019-04-04T05:21:01.601Z,1.22
2019-04-04T05:23:31.143Z,1.14
2019-04-04T05:26:03.311Z,1.11
2019-04-04T05:28:33.638Z,1.07
2019-04-04T05:31:03.939Z,1.03
2019-04-04T05:33:34.168Z,0.97
2019-04-04T05:36:05.236Z,0.93
2019-04-04T05:38:36.997Z,0.86
2019-04-04T05:41:07.173Z,0.83
2019-04-04T05:43:38.540Z,0.84
2019-04-04T05:46:09.143Z,0.86
2019-04-04T05:48:39.509Z,0.84
2019-04-04T05:51:09.755Z,0.90
2019-04-04T05:53:40.528Z,0.88
2019-04-04T05:56:10.712Z,0.90
2019-04-04T05:58:41.397Z,0.83
2019-04-04T06:01:13.528Z,0.81
2019-04-04T06:03:47.053Z,0.83
2019-04-04T06:06:15.620Z,0.83
2019-04-04T06:08:47.636Z,0.79
2019-04-04T06:11:20.988Z,0.82
2019-04-04T06:13:50.184Z,0.88
2019-04-04T06:16:20.399Z,0.89
2019-04-04T06:18:51.403Z,0.81
2019-04-04T06:21:22.439Z,0.92
2019-04-04T06:23:53.910Z,0.92
2019-04-04T06:26:25.237Z,1.00
2019-04-04T06:28:55.887Z,1.03
2019-04-04T06:31:27.264Z,1.05
2019-04-04T06:33:58.119Z,1.05
2019-04-04T06:36:28.887Z,1.13
2019-04-04T06:38:59.186Z,1.17
2019-04-04T06:41:30.682Z,1.21
2019-04-04T06:44:01.827Z,1.21
2019-04-04T06:46:32.443Z,1.23
2019-04-04T06:49:04.302Z,1.16
2019-04-04T06:51:35.289Z,1.19
2019-04-04T06:54:06.065Z,1.23
2019-04-04T06:56:36.362Z,1.29
2019-04-04T06:59:06.627Z,1.35
2019-04-04T07:01:37.383Z,1.41
2019-04-04T07:04:07.596Z,1.42
2019-04-04T07:06:38.130Z,1.37
2019-04-04T07:09:08.996Z,1.40
2019-04-04T07:11:39.241Z,1.38
2019-04-04T07:14:09.449Z,1.28
2019-04-04T07:16:40.232Z,1.24
2019-04-04T07:19:14.284Z,1.16
2019-04-04T07:21:42.973Z,1.13
2019-04-04T07:24:13.581Z,1.15
2019-04-04T07:26:45.451Z,1.16
2019-04-04T07:29:16.234Z,1.16
2019-04-04T07:31:46.883Z,1.16
2019-04-04T07:34:18.105Z,1.17
2019-04-04T07:36:49.159Z,1.18
2019-04-04T07:39:20.896Z,1.19
2019-04-04T07:41:51.558Z,1.16
2019-04-04T07:44:23.276Z,1.22
2019-04-04T07:46:55.618Z,1.30
2019-04-04T07:49:26.218Z,1.51
2019-04-04T07:51:56.842Z,1.57
2019-04-04T07:54:27.040Z,1.61
2019-04-04T07:56:57.255Z,1.57
2019-04-04T07:59:30.953Z,1.57
2019-04-04T08:02:00.375Z,1.64
2019-04-04T08:04:30.608Z,1.54
2019-04-04T08:07:01.264Z,1.63
2019-04-04T08:09:31.543Z,1.60
2019-04-04T08:12:02.065Z,1.53
2019-04-04T08:14:32.306Z,1.47
2019-04-04T08:17:02.599Z,1.44
2019-04-04T08:19:32.851Z,1.38
2019-04-04T08:22:03.086Z,1.34
2019-04-04T08:24:34.805Z,1.28
2019-04-04T08:27:05.159Z,1.22
2019-04-04T08:29:35.369Z,1.24
2019-04-04T08:32:05.657Z,1.18
2019-04-04T08:34:36.551Z,1.12
2019-04-04T08:37:06.851Z,1.17
2019-04-04T08:39:37.217Z,1.21
2019-04-04T08:42:07.649Z,1.21
2019-04-04T08:44:37.843Z,1.21
2019-04-04T08:47:08.409Z,1.13
2019-04-04T08:49:38.608Z,1.15
2019-04-04T08:52:16.454Z,1.20
2019-04-04T08:54:40.863Z,1.29
2019-04-04T08:57:11.119Z,1.34
2019-04-04T08:59:42.036Z,1.35
2019-04-04T09:02:12.267Z,1.39
2019-04-04T09:04:42.596Z,1.34
2019-04-04T09:07:13.156Z,1.34
2019-04-04T09:09:43.464Z,1.47
2019-04-04T09:12:14.120Z,1.55
2019-04-04T09:14:44.308Z,1.64
2019-04-04T09:17:14.708Z,1.62
2019-04-04T09:19:44.944Z,1.62
2019-04-04T09:22:15.211Z,1.60
2019-04-04T09:24:45.582Z,1.66
2019-04-04T09:27:16.164Z,1.59
2019-04-04T09:29:46.347Z,1.55
2019-04-04T09:32:17.811Z,1.66
2019-04-04T09:34:48.135Z,1.79
2019-04-04T09:37:18.339Z,1.96
2019-04-04T09:39:49.046Z,2.01
2019-04-04T09:42:19.954Z,2.02
2019-04-04T09:44:50.489Z,2.08
2019-04-04T09:47:20.978Z,2.18
2019-04-04T09:49:51.453Z,2.14
2019-04-04T09:52:22.179Z,2.10
2019-04-04T09:54:52.356Z,2.06
2019-04-04T09:57:22.856Z,2.06
2019-04-04T09:59:53.453Z,2.11
2019-04-04T10:02:35.582Z,1.96
2019-04-04T10:05:06.875Z,1.97
2019-04-04T10:07:37.844Z,2.05
2019-04-04T10:10:09.258Z,2.08
2019-04-04T10:12:39.462Z,1.99
2019-04-04T10:15:10.109Z,1.58
2019-04-04T10:17:40.533Z,1.46
2019-04-04T10:20:11.305Z,1.40
2019-04-04T10:22:42.065Z,1.49
2019-04-04T10:25:14.075Z,1.60
2019-04-04T10:27:45.837Z,1.78
2019-04-04T10:30:16.062Z,2.15
2019-04-04T10:32:46.623Z,2.25
2019-04-04T10:35:17.066Z,2.32
2019-04-04T10:37:47.794Z,2.32
2019-04-04T10:40:19.242Z,2.12
2019-04-04T10:42:50.367Z,2.13
2019-04-04T10:45:20.576Z,2.18
2019-04-04T10:47:51.130Z,2.24
2019-04-04T10:50:21.338Z,2.31
2019-04-04T10:52:51.756Z,2.28
2019-04-04T10:55:21.953Z,2.24
2019-04-04T10:57:52.999Z,2.27
2019-04-04T11:00:23.325Z,2.28
2019-04-04T11:02:54.332Z,2.34
2019-04-04T11:05:24.974Z,2.35
2019-04-04T11:07:56.904Z,2.35
2019-04-04T11:10:28.115Z,2.36
2019-04-04T11:12:58.691Z,2.35
2019-04-04T11:15:29.015Z,2.49
2019-04-04T11:17:59.884Z,2.57
2019-04-04T11:20:30.216Z,2.65
2019-04-04T11:23:00.597Z,2.68
2019-04-04T11:25:30.770Z,2.72
2019-04-04T11:28:01.351Z,2.76
2019-04-04T11:30:32.046Z,2.89
2019-04-04T11:33:02.715Z,2.83
2019-04-04T11:35:32.906Z,3.00
2019-04-04T11:38:03.268Z,3.17
2019-04-04T11:40:33.971Z,3.40
2019-04-04T11:43:04.698Z,3.55
2019-04-04T11:45:34.907Z,3.35
2019-04-04T11:48:05.146Z,3.57
2019-04-04T11:50:35.933Z,3.67
2019-04-04T11:53:06.408Z,3.69
2019-04-04T11:55:37.763Z,3.77
2019-04-04T11:58:08.086Z,3.72
2019-04-04T12:00:41.161Z,3.70
2019-04-04T12:03:11.400Z,3.77
2019-04-04T12:05:41.983Z,3.79
2019-04-04T12:08:12.861Z,3.86
2019-04-04T12:10:43.378Z,3.85
2019-04-04T12:13:13.608Z,3.74
2019-04-04T12:15:44.583Z,3.76
2019-04-04T12:18:16.013Z,3.83
2019-04-04T12:20:46.214Z,3.82
2019-04-04T12:23:16.921Z,3.78
2019-04-04T12:25:47.415Z,3.68
2019-04-04T12:28:17.990Z,3.61
2019-04-04T12:30:48.602Z,3.52
2019-04-04T12:33:19.624Z,3.38
2019-04-04T12:35:52.246Z,3.15
2019-04-04T12:38:22.243Z,3.07
2019-04-04T12:40:52.848Z,2.95
2019-04-04T12:43:23.479Z,2.89
2019-04-04T12:45:54.220Z,2.71
2019-04-04T12:48:24.955Z,2.69
2019-04-04T12:50:55.993Z,2.60
2019-04-04T12:53:26.289Z,2.72
2019-04-04T12:55:57.146Z,2.79
2019-04-04T12:58:27.482Z,2.92
2019-04-04T13:00:58.242Z,2.92
2019-04-04T13:03:28.552Z,3.02
2019-04-04T13:06:00.504Z,2.99
2019-04-04T13:08:31.067Z,3.09
2019-04-04T13:11:01.641Z,3.13
2019-04-04T13:13:32.299Z,2.96
2019-04-04T13:16:02.690Z,2.81
2019-04-04T13:18:32.952Z,2.69
2019-04-04T13:21:04.080Z,2.73
2019-04-04T13:23:34.618Z,2.65
2019-04-04T13:26:04.918Z,2.66
2019-04-04T13:28:35.131Z,2.77
2019-04-04T13:31:05.717Z,2.85
2019-04-04T13:33:36.014Z,2.77
2019-04-04T13:36:06.199Z,2.86
2019-04-04T13:38:37.646Z,3.02
2019-04-04T13:41:21.013Z,3.14
2019-04-04T13:43:42.534Z,3.16
2019-04-04T13:46:13.544Z,3.13
2019-04-04T13:48:44.199Z,3.16
2019-04-04T13:51:15.073Z,3.22
2019-04-04T13:53:45.291Z,3.19
2019-04-04T13:56:16.347Z,3.41
2019-04-04T13:58:47.631Z,3.57
2019-04-04T14:01:17.992Z,3.70
2019-04-04T14:03:48.618Z,3.69
2019-04-04T14:06:18.833Z,3.65
2019-04-04T14:08:49.078Z,3.79
2019-04-04T14:11:19.864Z,3.81
2019-04-04T14:13:50.130Z,3.86
2019-04-04T14:16:20.751Z,3.91
2019-04-04T14:18:52.225Z,3.97
2019-04-04T14:21:22.675Z,4.02
2019-04-04T14:23:53.163Z,4.04
2019-04-04T14:26:23.463Z,4.14
2019-04-04T14:28:53.704Z,4.40
2019-04-04T14:31:23.989Z,4.81
2019-04-04T14:33:54.311Z,5.09
2019-04-04T14:36:25.587Z,4.99
2019-04-04T14:38:55.902Z,4.98
2019-04-04T14:41:26.301Z,4.98
2019-04-04T14:43:59.978Z,4.97
2019-04-04T14:46:29.155Z,4.96
2019-04-04T14:48:59.414Z,5.00
2019-04-04T14:51:29.686Z,4.95
2019-04-04T14:54:00.339Z,4.76
2019-04-04T14:56:30.640Z,4.69
2019-04-04T14:59:01.218Z,4.53
2019-04-04T15:01:31.770Z,4.68
2019-04-04T15:04:02.382Z,4.77
2019-04-04T15:06:33.796Z,4.97
2019-04-04T15:09:06.239Z,4.95
2019-04-04T15:11:36.913Z,4.93
2019-04-04T15:14:07.228Z,4.93
2019-04-04T15:16:37.478Z,4.93
2019-04-04T15:19:07.841Z,4.71
2019-04-04T15:21:38.631Z,4.78
2019-04-04T15:24:09.145Z,4.78
2019-04-04T15:26:38.611Z,4.86
2019-04-04T15:29:08.818Z,4.83
2019-04-04T15:31:39.144Z,4.73
2019-04-04T15:34:09.380Z,4.71
2019-04-04T15:36:39.658Z,4.66
2019-04-04T15:39:10.019Z,4.62
2019-04-04T15:41:40.681Z,4.74
2019-04-04T15:44:11.090Z,4.71
2019-04-04T15:46:41.847Z,4.76
2019-04-04T15:49:12.011Z,4.79
2019-04-04T15:51:42.329Z,4.75
2019-04-04T15:54:12.588Z,4.59
2019-04-04T15:56:42.795Z,4.63
2019-04-04T15:59:13.205Z,4.61
2019-04-04T16:01:43.430Z,4.66
2019-04-04T16:04:13.647Z,4.67
2019-04-04T16:06:43.932Z,4.62
2019-04-04T16:09:14.603Z,4.66
2019-04-04T16:11:49.904Z,4.64
2019-04-04T16:14:17.020Z,4.68
2019-04-04T16:16:47.283Z,4.50
2019-04-04T16:19:17.624Z,4.54
2019-04-04T16:21:49.179Z,4.56
2019-04-04T16:24:21.703Z,4.63
2019-04-04T16:26:52.286Z,4.62
2019-04-04T16:29:22.683Z,4.62
2019-04-04T16:31:53.247Z,4.69
2019-04-04T16:34:24.800Z,4.77
2019-04-04T16:36:55.119Z,4.79
2019-04-04T16:39:25.761Z,4.83
2019-04-04T16:42:02.115Z,4.96
2019-04-04T16:44:28.399Z,4.97
2019-04-04T16:46:58.675Z,5.01
2019-04-04T16:49:29.342Z,4.96
2019-04-04T16:51:59.631Z,4.85
2019-04-04T16:54:29.951Z,4.77
2019-04-04T16:57:02.283Z,4.66
2019-04-04T16:59:34.109Z,4.54
2019-04-04T17:02:17.226Z,4.41
2019-04-04T17:04:49.617Z,4.30
2019-04-04T17:07:23.460Z,4.31
2019-04-04T17:09:53.756Z,4.24
2019-04-04T17:12:25.140Z,4.19
2019-04-04T17:14:55.331Z,4.11
2019-04-04T17:17:29.586Z,4.02
2019-04-04T17:20:01.433Z,3.99
2019-04-04T17:22:38.085Z,3.98
2019-04-04T17:25:09.037Z,3.92
2019-04-04T17:27:39.910Z,3.83
2019-04-04T17:30:12.818Z,3.77
2019-04-04T17:32:43.207Z,3.71
2019-04-04T17:35:14.179Z,3.70
2019-04-04T17:37:44.703Z,3.61
2019-04-04T17:40:16.127Z,3.54
2019-04-04T17:42:47.801Z,3.48
2019-04-04T17:45:19.659Z,3.47
2019-04-04T17:47:50.110Z,3.52
2019-04-04T17:50:20.769Z,3.53
2019-04-04T17:52:51.123Z,3.49
2019-04-04T17:55:21.917Z,3.48
2019-04-04T17:57:52.569Z,3.47
2019-04-04T18:00:24.809Z,3.47
2019-04-04T18:02:55.186Z,3.43
2019-04-04T18:05:25.982Z,3.39
2019-04-04T18:07:56.291Z,3.27
2019-04-04T18:10:26.457Z,3.20
2019-04-04T18:12:59.895Z,3.14
2019-04-04T18:15:34.633Z,3.10
2019-04-04T18:18:05.058Z,3.01
2019-04-04T18:20:35.740Z,2.92
2019-04-04T18:23:09.190Z,2.89
2019-04-04T18:25:40.399Z,2.81
2019-04-04T18:28:10.794Z,2.83
2019-04-04T18:30:41.938Z,2.81
2019-04-04T18:33:12.855Z,2.78
2019-04-04T18:35:43.412Z,2.74
2019-04-04T18:38:14.198Z,2.69
2019-04-04T18:40:45.173Z,2.68
2019-04-04T18:43:15.727Z,2.65
2019-04-04T18:45:45.955Z,2.61
2019-04-04T18:48:16.528Z,2.59
2019-04-04T18:50:46.708Z,2.51
2019-04-04T18:53:16.951Z,2.57
2019-04-04T18:55:47.918Z,2.62
2019-04-04T18:58:18.578Z,2.55
2019-04-04T19:00:49.901Z,2.55
2019-04-04T19:03:21.373Z,2.49
2019-04-04T19:05:52.091Z,2.42
2019-04-04T19:08:22.336Z,2.35
2019-04-04T19:10:53.019Z,2.26
2019-04-04T19:13:23.859Z,2.16
2019-04-04T19:15:54.480Z,2.08
2019-04-04T19:18:24.757Z,2.00
2019-04-04T19:20:55.664Z,1.98
2019-04-04T19:23:26.379Z,1.93
2019-04-04T19:25:57.040Z,1.84
2019-04-04T19:28:27.700Z,1.77
2019-04-04T19:30:58.710Z,1.73
2019-04-04T19:33:29.778Z,1.68
2019-04-04T19:36:00.068Z,1.69
2019-04-04T19:38:30.333Z,1.65
2019-04-04T19:41:01.069Z,1.67
2019-04-04T19:43:32.918Z,1.85
2019-04-04T19:46:03.820Z,1.92
2019-04-04T19:48:34.236Z,1.93
2019-04-04T19:51:04.931Z,1.90
2019-04-04T19:53:35.140Z,1.87
2019-04-04T19:56:05.849Z,1.83
2019-04-04T19:58:36.243Z,1.78
2019-04-04T20:01:06.602Z,1.78
2019-04-04T20:03:37.289Z,1.68
2019-04-04T20:06:07.509Z,1.61
2019-04-04T20:08:38.089Z,1.66
2019-04-04T20:11:08.380Z,1.62
2019-04-04T20:13:39.447Z,1.77
2019-04-04T20:16:12.365Z,1.75
2019-04-04T20:18:42.688Z,1.77
2019-04-04T20:21:13.636Z,1.77
2019-04-04T20:23:43.961Z,1.78
2019-04-04T20:26:14.889Z,1.70
2019-04-04T20:28:45.283Z,1.76
2019-04-04T20:31:16.425Z,1.76
2019-04-04T20:34:00.557Z,1.73
2019-04-04T20:36:19.947Z,1.63
2019-04-04T20:38:50.551Z,1.63
2019-04-04T20:41:21.242Z,1.56
2019-04-04T20:43:51.494Z,1.59
2019-04-04T20:46:22.379Z,1.62
2019-04-04T20:48:52.907Z,1.65
2019-04-04T20:51:23.207Z,1.62
2019-04-04T20:53:53.427Z,1.52
2019-04-04T20:56:23.741Z,1.56
2019-04-04T20:58:54.753Z,1.57
2019-04-04T21:01:25.458Z,1.70
2019-04-04T21:03:55.858Z,1.77
2019-04-04T21:06:26.459Z,1.92
2019-04-04T21:08:57.159Z,1.91
2019-04-04T21:11:27.440Z,1.96
2019-04-04T21:13:58.110Z,1.99
2019-04-04T21:16:28.383Z,2.00
2019-04-04T21:19:00.273Z,1.86
2019-04-04T21:21:30.564Z,1.66
2019-04-04T21:24:00.908Z,1.50
2019-04-04T21:26:31.115Z,1.38
2019-04-04T21:29:01.345Z,1.37
2019-04-04T21:31:33.070Z,1.29
2019-04-04T21:34:04.396Z,1.20
2019-04-04T21:36:35.048Z,1.17
2019-04-04T21:39:08.133Z,1.11
2019-04-04T21:41:38.741Z,1.17
2019-04-04T21:44:09.511Z,1.19
2019-04-04T21:46:39.782Z,1.25
2019-04-04T21:49:10.004Z,1.30
2019-04-04T21:51:41.679Z,1.38
2019-04-04T21:54:11.896Z,1.50
2019-04-04T21:56:42.504Z,1.57
2019-04-04T21:59:13.091Z,1.54
2019-04-04T22:01:43.657Z,1.60
2019-04-04T22:04:13.900Z,1.63
2019-04-04T22:06:44.307Z,1.69
2019-04-04T22:09:19.357Z,1.74
2019-04-04T22:11:49.665Z,1.71
2019-04-04T22:14:22.365Z,1.71
2019-04-04T22:16:53.018Z,1.60
2019-04-04T22:19:23.189Z,1.61
2019-04-04T22:21:53.668Z,1.59
2019-04-04T22:24:24.339Z,1.57
2019-04-04T22:26:54.959Z,1.40
2019-04-04T22:29:26.243Z,1.32
2019-04-04T22:31:56.474Z,1.31
2019-04-04T22:34:26.699Z,1.21
2019-04-04T22:36:57.008Z,1.21
2019-04-04T22:39:27.513Z,1.23
2019-04-04T22:41:57.770Z,1.08
2019-04-04T22:44:34.723Z,1.00
2019-04-04T22:47:00.448Z,0.88
2019-04-04T22:49:30.730Z,0.83
2019-04-04T22:52:01.004Z,0.75
2019-04-04T22:54:31.608Z,0.74
2019-04-04T22:57:03.330Z,0.62
2019-04-04T22:59:33.514Z,0.49
2019-04-04T23:02:04.001Z,0.53
2019-04-04T23:04:34.280Z,0.48
2019-04-04T23:07:04.590Z,0.50
2019-04-04T23:09:34.818Z,0.45
2019-04-04T23:12:05.050Z,0.43
2019-04-04T23:14:47.460Z,0.45
2019-04-04T23:17:07.238Z,0.41
2019-04-04T23:19:37.826Z,0.29
2019-04-04T23:22:08.179Z,0.23
2019-04-04T23:24:39.078Z,0.20
2019-04-04T23:27:09.359Z,0.18
2019-04-04T23:29:42.466Z,0.31
2019-04-04T23:32:11.863Z,0.54
2019-04-04T23:34:42.403Z,0.60
2019-04-04T23:37:13.036Z,0.67
2019-04-04T23:39:44.008Z,0.66
2019-04-04T23:42:15.255Z,1.01
2019-04-04T23:44:59.902Z,1.05
2019-04-04T23:47:18.907Z,1.14
2019-04-04T23:49:49.133Z,1.13
2019-04-04T23:52:19.614Z,1.01
2019-04-04T23:54:51.112Z,0.99
2019-04-04T23:57:21.392Z,0.97
